sensor_id;sensor_type;location;lat;lon;timestamp;P1;durP1;ratioP1;P2;durP2;ratioP2
8297;SDS011;4187;42.778;23.242;2023-12-20T00:00:18;58.90;;;35.20;;
8297;SDS011;4187;42.778;23.242;2023-12-20T00:02:44;56.80;;;32.20;;
8297;SDS011;4187;42.778;23.242;2023-12-20T00:05:12;54.90;;;32.50;;
8297;SDS011;4187;42.778;23.242;2023-12-20T00:07:38;58.83;;;33.17;;
8297;SDS011;4187;42.778;23.242;2023-12-20T00:10:05;63.87;;;35.70;;
8297;SDS011;4187;42.778;23.242;2023-12-20T00:12:32;60.47;;;35.60;;
8297;SDS011;4187;42.778;23.242;2023-12-20T00:14:59;60.30;;;33.80;;
8297;SDS011;4187;42.778;23.242;2023-12-20T00:17:25;47.10;;;30.03;;
8297;SDS011;4187;42.778;23.242;2023-12-20T00:19:52;51.43;;;29.33;;
8297;SDS011;4187;42.778;23.242;2023-12-20T00:22:18;45.17;;;29.10;;
8297;SDS011;4187;42.778;23.242;2023-12-20T00:24:45;46.83;;;29.40;;
8297;SDS011;4187;42.778;23.242;2023-12-20T00:27:11;48.97;;;31.90;;
8297;SDS011;4187;42.778;23.242;2023-12-20T00:29:38;46.33;;;30.83;;
8297;SDS011;4187;42.778;23.242;2023-12-20T00:32:05;53.90;;;29.07;;
8297;SDS011;4187;42.778;23.242;2023-12-20T00:34:33;46.70;;;29.50;;
8297;SDS011;4187;42.778;23.242;2023-12-20T00:36:59;49.27;;;28.60;;
8297;SDS011;4187;42.778;23.242;2023-12-20T00:39:26;48.13;;;29.13;;
8297;SDS011;4187;42.778;23.242;2023-12-20T00:41:52;46.10;;;27.07;;
8297;SDS011;4187;42.778;23.242;2023-12-20T00:44:18;40.07;;;28.63;;
8297;SDS011;4187;42.778;23.242;2023-12-20T00:46:45;48.13;;;27.97;;
8297;SDS011;4187;42.778;23.242;2023-12-20T00:49:11;52.63;;;28.10;;
8297;SDS011;4187;42.778;23.242;2023-12-20T00:51:39;50.30;;;32.03;;
8297;SDS011;4187;42.778;23.242;2023-12-20T00:54:06;44.70;;;30.73;;
8297;SDS011;4187;42.778;23.242;2023-12-20T00:56:32;52.33;;;34.67;;
8297;SDS011;4187;42.778;23.242;2023-12-20T00:58:59;54.07;;;35.13;;
8297;SDS011;4187;42.778;23.242;2023-12-20T01:01:25;70.67;;;41.53;;
8297;SDS011;4187;42.778;23.242;2023-12-20T01:03:52;96.97;;;56.53;;
8297;SDS011;4187;42.778;23.242;2023-12-20T01:06:18;135.43;;;75.47;;
8297;SDS011;4187;42.778;23.242;2023-12-20T01:08:46;115.17;;;66.37;;
8297;SDS011;4187;42.778;23.242;2023-12-20T01:11:13;114.30;;;65.93;;
8297;SDS011;4187;42.778;23.242;2023-12-20T01:13:39;113.03;;;64.40;;
8297;SDS011;4187;42.778;23.242;2023-12-20T01:16:06;116.43;;;67.03;;
8297;SDS011;4187;42.778;23.242;2023-12-20T01:18:32;105.40;;;59.27;;
8297;SDS011;4187;42.778;23.242;2023-12-20T01:21:01;107.80;;;62.27;;
8297;SDS011;4187;42.778;23.242;2023-12-20T01:23:27;121.33;;;65.13;;
8297;SDS011;4187;42.778;23.242;2023-12-20T01:25:55;147.00;;;77.57;;
8297;SDS011;4187;42.778;23.242;2023-12-20T01:28:22;119.00;;;63.47;;
8297;SDS011;4187;42.778;23.242;2023-12-20T01:30:48;151.50;;;76.90;;
8297;SDS011;4187;42.778;23.242;2023-12-20T01:33:15;108.30;;;58.83;;
8297;SDS011;4187;42.778;23.242;2023-12-20T01:35:41;103.23;;;54.87;;
8297;SDS011;4187;42.778;23.242;2023-12-20T01:38:08;95.80;;;50.67;;
8297;SDS011;4187;42.778;23.242;2023-12-20T01:40:35;117.93;;;62.23;;
8297;SDS011;4187;42.778;23.242;2023-12-20T01:43:06;108.30;;;59.83;;
8297;SDS011;4187;42.778;23.242;2023-12-20T01:45:33;109.73;;;54.23;;
8297;SDS011;4187;42.778;23.242;2023-12-20T01:47:59;88.93;;;52.73;;
8297;SDS011;4187;42.778;23.242;2023-12-20T01:50:28;94.33;;;53.90;;
8297;SDS011;4187;42.778;23.242;2023-12-20T01:52:54;95.47;;;52.60;;
8297;SDS011;4187;42.778;23.242;2023-12-20T01:55:22;117.93;;;53.63;;
8297;SDS011;4187;42.778;23.242;2023-12-20T01:57:49;107.27;;;52.37;;
8297;SDS011;4187;42.778;23.242;2023-12-20T02:00:18;100.53;;;48.97;;
8297;SDS011;4187;42.778;23.242;2023-12-20T02:02:48;93.00;;;47.07;;
8297;SDS011;4187;42.778;23.242;2023-12-20T02:05:15;89.70;;;43.67;;
8297;SDS011;4187;42.778;23.242;2023-12-20T02:07:42;93.43;;;43.27;;
8297;SDS011;4187;42.778;23.242;2023-12-20T02:10:08;104.70;;;45.40;;
8297;SDS011;4187;42.778;23.242;2023-12-20T02:12:35;101.07;;;46.00;;
8297;SDS011;4187;42.778;23.242;2023-12-20T02:15:02;102.63;;;45.57;;
8297;SDS011;4187;42.778;23.242;2023-12-20T02:17:30;149.90;;;53.53;;
8297;SDS011;4187;42.778;23.242;2023-12-20T02:19:57;139.53;;;57.03;;
8297;SDS011;4187;42.778;23.242;2023-12-20T02:22:25;118.27;;;58.67;;
8297;SDS011;4187;42.778;23.242;2023-12-20T02:24:52;111.07;;;52.00;;
8297;SDS011;4187;42.778;23.242;2023-12-20T02:27:18;91.63;;;47.87;;
8297;SDS011;4187;42.778;23.242;2023-12-20T02:29:46;89.87;;;42.97;;
8297;SDS011;4187;42.778;23.242;2023-12-20T02:32:13;80.43;;;41.97;;
8297;SDS011;4187;42.778;23.242;2023-12-20T02:34:39;69.93;;;38.30;;
8297;SDS011;4187;42.778;23.242;2023-12-20T02:37:06;77.00;;;41.40;;
8297;SDS011;4187;42.778;23.242;2023-12-20T02:39:34;73.97;;;39.23;;
8297;SDS011;4187;42.778;23.242;2023-12-20T02:42:00;77.23;;;39.03;;
8297;SDS011;4187;42.778;23.242;2023-12-20T02:44:27;69.97;;;37.60;;
8297;SDS011;4187;42.778;23.242;2023-12-20T02:46:53;90.60;;;37.90;;
8297;SDS011;4187;42.778;23.242;2023-12-20T02:49:20;101.30;;;40.90;;
8297;SDS011;4187;42.778;23.242;2023-12-20T02:51:46;72.07;;;39.40;;
8297;SDS011;4187;42.778;23.242;2023-12-20T02:54:12;79.13;;;38.60;;
8297;SDS011;4187;42.778;23.242;2023-12-20T02:56:40;83.37;;;36.57;;
8297;SDS011;4187;42.778;23.242;2023-12-20T02:59:07;112.97;;;32.10;;
8297;SDS011;4187;42.778;23.242;2023-12-20T03:01:34;96.17;;;34.07;;
8297;SDS011;4187;42.778;23.242;2023-12-20T03:04:01;89.50;;;34.23;;
8297;SDS011;4187;42.778;23.242;2023-12-20T03:06:27;100.80;;;37.17;;
8297;SDS011;4187;42.778;23.242;2023-12-20T03:08:54;65.87;;;33.57;;
8297;SDS011;4187;42.778;23.242;2023-12-20T03:11:20;81.77;;;34.37;;
8297;SDS011;4187;42.778;23.242;2023-12-20T03:13:48;79.63;;;35.83;;
8297;SDS011;4187;42.778;23.242;2023-12-20T03:16:15;67.60;;;33.07;;
8297;SDS011;4187;42.778;23.242;2023-12-20T03:18:41;70.53;;;35.97;;
8297;SDS011;4187;42.778;23.242;2023-12-20T03:21:08;74.57;;;37.07;;
8297;SDS011;4187;42.778;23.242;2023-12-20T03:23:35;67.63;;;37.03;;
8297;SDS011;4187;42.778;23.242;2023-12-20T03:26:01;101.30;;;38.93;;
8297;SDS011;4187;42.778;23.242;2023-12-20T03:28:29;119.30;;;35.43;;
8297;SDS011;4187;42.778;23.242;2023-12-20T03:30:57;70.10;;;34.30;;
8297;SDS011;4187;42.778;23.242;2023-12-20T03:33:23;72.77;;;33.80;;
8297;SDS011;4187;42.778;23.242;2023-12-20T03:35:50;81.87;;;37.20;;
8297;SDS011;4187;42.778;23.242;2023-12-20T03:38:16;65.77;;;35.93;;
8297;SDS011;4187;42.778;23.242;2023-12-20T03:40:43;74.87;;;37.83;;
8297;SDS011;4187;42.778;23.242;2023-12-20T03:43:09;83.73;;;37.53;;
8297;SDS011;4187;42.778;23.242;2023-12-20T03:45:36;86.53;;;35.37;;
8297;SDS011;4187;42.778;23.242;2023-12-20T03:48:04;58.03;;;31.40;;
8297;SDS011;4187;42.778;23.242;2023-12-20T03:50:31;59.43;;;32.00;;
8297;SDS011;4187;42.778;23.242;2023-12-20T03:52:57;62.73;;;34.13;;
8297;SDS011;4187;42.778;23.242;2023-12-20T03:55:24;84.87;;;35.43;;
8297;SDS011;4187;42.778;23.242;2023-12-20T03:57:50;101.57;;;38.37;;
8297;SDS011;4187;42.778;23.242;2023-12-20T04:00:17;84.53;;;36.17;;
8297;SDS011;4187;42.778;23.242;2023-12-20T04:02:43;80.77;;;39.03;;
8297;SDS011;4187;42.778;23.242;2023-12-20T04:05:11;91.27;;;38.17;;
8297;SDS011;4187;42.778;23.242;2023-12-20T04:07:38;58.53;;;32.37;;
8297;SDS011;4187;42.778;23.242;2023-12-20T04:10:05;61.70;;;31.47;;
8297;SDS011;4187;42.778;23.242;2023-12-20T04:12:32;54.27;;;30.63;;
8297;SDS011;4187;42.778;23.242;2023-12-20T04:14:58;68.33;;;35.70;;
8297;SDS011;4187;42.778;23.242;2023-12-20T04:17:25;60.67;;;35.13;;
8297;SDS011;4187;42.778;23.242;2023-12-20T04:19:51;66.67;;;35.63;;
8297;SDS011;4187;42.778;23.242;2023-12-20T04:22:19;86.33;;;40.03;;
8297;SDS011;4187;42.778;23.242;2023-12-20T04:24:46;69.30;;;38.97;;
8297;SDS011;4187;42.778;23.242;2023-12-20T04:27:12;68.53;;;38.47;;
8297;SDS011;4187;42.778;23.242;2023-12-20T04:29:39;81.47;;;37.20;;
8297;SDS011;4187;42.778;23.242;2023-12-20T04:32:06;85.73;;;38.47;;
8297;SDS011;4187;42.778;23.242;2023-12-20T04:34:32;85.50;;;36.83;;
8297;SDS011;4187;42.778;23.242;2023-12-20T04:36:59;85.93;;;38.73;;
8297;SDS011;4187;42.778;23.242;2023-12-20T04:39:28;118.93;;;43.27;;
8297;SDS011;4187;42.778;23.242;2023-12-20T04:41:54;117.73;;;43.43;;
8297;SDS011;4187;42.778;23.242;2023-12-20T04:44:21;93.73;;;44.10;;
8297;SDS011;4187;42.778;23.242;2023-12-20T04:46:47;80.13;;;45.57;;
8297;SDS011;4187;42.778;23.242;2023-12-20T04:49:14;102.83;;;48.27;;
8297;SDS011;4187;42.778;23.242;2023-12-20T04:51:40;89.33;;;43.93;;
8297;SDS011;4187;42.778;23.242;2023-12-20T04:54:06;69.57;;;40.77;;
8297;SDS011;4187;42.778;23.242;2023-12-20T04:56:34;100.00;;;39.93;;
8297;SDS011;4187;42.778;23.242;2023-12-20T04:59:01;82.20;;;42.00;;
8297;SDS011;4187;42.778;23.242;2023-12-20T05:01:27;79.53;;;40.60;;
8297;SDS011;4187;42.778;23.242;2023-12-20T05:03:54;122.67;;;49.90;;
8297;SDS011;4187;42.778;23.242;2023-12-20T05:06:20;97.90;;;44.77;;
8297;SDS011;4187;42.778;23.242;2023-12-20T05:08:47;75.23;;;37.23;;
8297;SDS011;4187;42.778;23.242;2023-12-20T05:11:13;77.73;;;47.70;;
8297;SDS011;4187;42.778;23.242;2023-12-20T05:13:42;99.57;;;52.00;;
8297;SDS011;4187;42.778;23.242;2023-12-20T05:16:08;85.67;;;46.40;;
8297;SDS011;4187;42.778;23.242;2023-12-20T05:18:35;91.20;;;55.20;;
8297;SDS011;4187;42.778;23.242;2023-12-20T05:21:02;78.57;;;42.40;;
8297;SDS011;4187;42.778;23.242;2023-12-20T05:23:28;68.93;;;42.60;;
8297;SDS011;4187;42.778;23.242;2023-12-20T05:25:55;91.97;;;54.10;;
8297;SDS011;4187;42.778;23.242;2023-12-20T05:28:21;82.93;;;38.80;;
8297;SDS011;4187;42.778;23.242;2023-12-20T05:30:49;55.90;;;33.07;;
8297;SDS011;4187;42.778;23.242;2023-12-20T05:33:16;109.73;;;56.73;;
8297;SDS011;4187;42.778;23.242;2023-12-20T05:35:42;85.27;;;45.13;;
8297;SDS011;4187;42.778;23.242;2023-12-20T05:38:09;70.77;;;35.93;;
8297;SDS011;4187;42.778;23.242;2023-12-20T05:40:35;71.53;;;32.47;;
8297;SDS011;4187;42.778;23.242;2023-12-20T05:43:02;79.73;;;35.63;;
8297;SDS011;4187;42.778;23.242;2023-12-20T05:45:28;63.83;;;26.63;;
8297;SDS011;4187;42.778;23.242;2023-12-20T05:47:56;63.40;;;26.13;;
8297;SDS011;4187;42.778;23.242;2023-12-20T05:50:23;53.60;;;25.23;;
8297;SDS011;4187;42.778;23.242;2023-12-20T05:52:50;38.17;;;23.93;;
8297;SDS011;4187;42.778;23.242;2023-12-20T05:55:16;37.83;;;22.73;;
8297;SDS011;4187;42.778;23.242;2023-12-20T05:57:43;38.13;;;22.13;;
8297;SDS011;4187;42.778;23.242;2023-12-20T06:00:10;92.50;;;26.77;;
8297;SDS011;4187;42.778;23.242;2023-12-20T06:02:37;46.80;;;25.27;;
8297;SDS011;4187;42.778;23.242;2023-12-20T06:05:05;81.10;;;25.23;;
8297;SDS011;4187;42.778;23.242;2023-12-20T06:07:32;107.33;;;26.70;;
8297;SDS011;4187;42.778;23.242;2023-12-20T06:09:58;43.73;;;24.73;;
8297;SDS011;4187;42.778;23.242;2023-12-20T06:12:25;53.63;;;24.87;;
8297;SDS011;4187;42.778;23.242;2023-12-20T06:14:52;48.17;;;24.50;;
8297;SDS011;4187;42.778;23.242;2023-12-20T06:17:18;48.17;;;25.57;;
8297;SDS011;4187;42.778;23.242;2023-12-20T06:19:45;49.70;;;25.10;;
8297;SDS011;4187;42.778;23.242;2023-12-20T06:22:14;89.37;;;29.93;;
8297;SDS011;4187;42.778;23.242;2023-12-20T06:24:41;48.67;;;26.93;;
8297;SDS011;4187;42.778;23.242;2023-12-20T06:27:07;45.17;;;24.83;;
8297;SDS011;4187;42.778;23.242;2023-12-20T06:29:34;106.37;;;28.63;;
8297;SDS011;4187;42.778;23.242;2023-12-20T06:32:00;126.20;;;29.80;;
8297;SDS011;4187;42.778;23.242;2023-12-20T06:34:27;67.07;;;26.73;;
8297;SDS011;4187;42.778;23.242;2023-12-20T06:36:53;91.87;;;31.57;;
8297;SDS011;4187;42.778;23.242;2023-12-20T06:39:21;109.77;;;32.03;;
8297;SDS011;4187;42.778;23.242;2023-12-20T06:41:48;103.03;;;34.83;;
8297;SDS011;4187;42.778;23.242;2023-12-20T06:44:14;60.63;;;33.57;;
8297;SDS011;4187;42.778;23.242;2023-12-20T06:46:41;71.77;;;31.93;;
8297;SDS011;4187;42.778;23.242;2023-12-20T06:49:07;74.30;;;31.93;;
8297;SDS011;4187;42.778;23.242;2023-12-20T06:51:34;113.00;;;34.23;;
8297;SDS011;4187;42.778;23.242;2023-12-20T06:54:00;113.70;;;35.17;;
8297;SDS011;4187;42.778;23.242;2023-12-20T06:56:29;88.97;;;33.67;;
8297;SDS011;4187;42.778;23.242;2023-12-20T06:58:55;74.77;;;31.67;;
8297;SDS011;4187;42.778;23.242;2023-12-20T07:01:22;55.77;;;30.67;;
8297;SDS011;4187;42.778;23.242;2023-12-20T07:03:48;73.50;;;34.87;;
8297;SDS011;4187;42.778;23.242;2023-12-20T07:06:15;65.50;;;34.10;;
8297;SDS011;4187;42.778;23.242;2023-12-20T07:08:42;66.10;;;32.03;;
8297;SDS011;4187;42.778;23.242;2023-12-20T07:11:08;70.77;;;28.90;;
8297;SDS011;4187;42.778;23.242;2023-12-20T07:13:36;63.30;;;28.17;;
8297;SDS011;4187;42.778;23.242;2023-12-20T07:16:03;88.30;;;29.17;;
8297;SDS011;4187;42.778;23.242;2023-12-20T07:18:29;62.97;;;24.60;;
8297;SDS011;4187;42.778;23.242;2023-12-20T07:20:56;70.87;;;25.20;;
8297;SDS011;4187;42.778;23.242;2023-12-20T07:23:23;67.03;;;24.67;;
8297;SDS011;4187;42.778;23.242;2023-12-20T07:25:51;101.00;;;25.13;;
8297;SDS011;4187;42.778;23.242;2023-12-20T07:28:17;38.23;;;22.67;;
8297;SDS011;4187;42.778;23.242;2023-12-20T07:30:45;78.77;;;25.07;;
8297;SDS011;4187;42.778;23.242;2023-12-20T07:33:12;66.57;;;23.20;;
8297;SDS011;4187;42.778;23.242;2023-12-20T07:35:38;40.97;;;20.83;;
8297;SDS011;4187;42.778;23.242;2023-12-20T07:38:05;39.97;;;17.60;;
8297;SDS011;4187;42.778;23.242;2023-12-20T07:40:32;41.63;;;19.50;;
8297;SDS011;4187;42.778;23.242;2023-12-20T07:42:58;36.93;;;19.83;;
8297;SDS011;4187;42.778;23.242;2023-12-20T07:45:25;45.23;;;20.57;;
8297;SDS011;4187;42.778;23.242;2023-12-20T07:47:53;39.80;;;19.43;;
8297;SDS011;4187;42.778;23.242;2023-12-20T07:50:19;35.90;;;20.47;;
8297;SDS011;4187;42.778;23.242;2023-12-20T07:52:46;41.53;;;20.40;;
8297;SDS011;4187;42.778;23.242;2023-12-20T07:55:12;37.87;;;20.63;;
8297;SDS011;4187;42.778;23.242;2023-12-20T07:57:39;88.73;;;20.30;;
8297;SDS011;4187;42.778;23.242;2023-12-20T08:00:05;45.07;;;20.73;;
8297;SDS011;4187;42.778;23.242;2023-12-20T08:02:32;32.10;;;19.17;;
8297;SDS011;4187;42.778;23.242;2023-12-20T08:05:00;30.97;;;17.83;;
8297;SDS011;4187;42.778;23.242;2023-12-20T08:07:26;47.87;;;21.13;;
8297;SDS011;4187;42.778;23.242;2023-12-20T08:09:53;32.80;;;20.03;;
8297;SDS011;4187;42.778;23.242;2023-12-20T08:12:20;65.20;;;21.40;;
8297;SDS011;4187;42.778;23.242;2023-12-20T08:14:46;54.27;;;21.83;;
8297;SDS011;4187;42.778;23.242;2023-12-20T08:17:15;43.90;;;22.70;;
8297;SDS011;4187;42.778;23.242;2023-12-20T08:19:44;39.53;;;21.80;;
8297;SDS011;4187;42.778;23.242;2023-12-20T08:22:12;46.90;;;23.43;;
8297;SDS011;4187;42.778;23.242;2023-12-20T08:24:38;45.63;;;22.70;;
8297;SDS011;4187;42.778;23.242;2023-12-20T08:27:05;51.83;;;24.60;;
8297;SDS011;4187;42.778;23.242;2023-12-20T08:29:31;69.60;;;26.20;;
8297;SDS011;4187;42.778;23.242;2023-12-20T08:31:58;56.57;;;29.67;;
8297;SDS011;4187;42.778;23.242;2023-12-20T08:34:25;48.33;;;25.93;;
8297;SDS011;4187;42.778;23.242;2023-12-20T08:36:51;49.70;;;27.20;;
8297;SDS011;4187;42.778;23.242;2023-12-20T08:39:19;50.10;;;24.57;;
8297;SDS011;4187;42.778;23.242;2023-12-20T08:41:46;61.47;;;22.90;;
8297;SDS011;4187;42.778;23.242;2023-12-20T08:44:13;57.37;;;23.73;;
8297;SDS011;4187;42.778;23.242;2023-12-20T08:46:39;57.53;;;22.90;;
8297;SDS011;4187;42.778;23.242;2023-12-20T08:49:06;40.30;;;20.50;;
8297;SDS011;4187;42.778;23.242;2023-12-20T08:51:33;51.77;;;22.93;;
8297;SDS011;4187;42.778;23.242;2023-12-20T08:54:00;60.97;;;23.23;;
8297;SDS011;4187;42.778;23.242;2023-12-20T08:56:28;45.40;;;21.53;;
8297;SDS011;4187;42.778;23.242;2023-12-20T08:58:54;41.43;;;20.13;;
8297;SDS011;4187;42.778;23.242;2023-12-20T09:01:21;84.47;;;21.87;;
8297;SDS011;4187;42.778;23.242;2023-12-20T09:03:47;48.00;;;23.20;;
8297;SDS011;4187;42.778;23.242;2023-12-20T09:06:14;44.27;;;22.57;;
8297;SDS011;4187;42.778;23.242;2023-12-20T09:08:40;42.03;;;21.73;;
8297;SDS011;4187;42.778;23.242;2023-12-20T09:11:07;45.20;;;22.10;;
8297;SDS011;4187;42.778;23.242;2023-12-20T09:13:35;39.23;;;23.10;;
8297;SDS011;4187;42.778;23.242;2023-12-20T09:16:02;42.07;;;23.43;;
8297;SDS011;4187;42.778;23.242;2023-12-20T09:18:28;55.90;;;24.83;;
8297;SDS011;4187;42.778;23.242;2023-12-20T09:20:55;45.10;;;24.23;;
8297;SDS011;4187;42.778;23.242;2023-12-20T09:23:21;44.13;;;25.03;;
8297;SDS011;4187;42.778;23.242;2023-12-20T09:25:48;38.83;;;25.40;;
8297;SDS011;4187;42.778;23.242;2023-12-20T09:28:14;44.70;;;28.53;;
8297;SDS011;4187;42.778;23.242;2023-12-20T09:30:42;50.23;;;28.40;;
8297;SDS011;4187;42.778;23.242;2023-12-20T09:33:11;45.90;;;27.60;;
8297;SDS011;4187;42.778;23.242;2023-12-20T09:35:37;51.37;;;30.40;;
8297;SDS011;4187;42.778;23.242;2023-12-20T09:38:04;55.47;;;31.67;;
8297;SDS011;4187;42.778;23.242;2023-12-20T09:40:30;50.47;;;29.80;;
8297;SDS011;4187;42.778;23.242;2023-12-20T09:42:58;49.50;;;27.20;;
8297;SDS011;4187;42.778;23.242;2023-12-20T09:45:27;48.73;;;27.40;;
8297;SDS011;4187;42.778;23.242;2023-12-20T09:47:55;45.63;;;27.53;;
8297;SDS011;4187;42.778;23.242;2023-12-20T09:50:22;44.73;;;26.67;;
8297;SDS011;4187;42.778;23.242;2023-12-20T09:52:49;49.03;;;29.97;;
8297;SDS011;4187;42.778;23.242;2023-12-20T09:55:16;51.17;;;31.27;;
8297;SDS011;4187;42.778;23.242;2023-12-20T09:57:43;68.33;;;37.37;;
8297;SDS011;4187;42.778;23.242;2023-12-20T10:00:10;51.50;;;29.77;;
8297;SDS011;4187;42.778;23.242;2023-12-20T10:02:37;51.97;;;31.03;;
8297;SDS011;4187;42.778;23.242;2023-12-20T10:05:06;54.63;;;29.77;;
8297;SDS011;4187;42.778;23.242;2023-12-20T10:07:34;46.83;;;29.47;;
8297;SDS011;4187;42.778;23.242;2023-12-20T10:10:01;52.73;;;30.23;;
8297;SDS011;4187;42.778;23.242;2023-12-20T10:12:28;48.87;;;25.97;;
8297;SDS011;4187;42.778;23.242;2023-12-20T10:14:54;41.60;;;26.60;;
8297;SDS011;4187;42.778;23.242;2023-12-20T10:17:21;41.43;;;24.80;;
8297;SDS011;4187;42.778;23.242;2023-12-20T10:19:48;41.23;;;25.87;;
8297;SDS011;4187;42.778;23.242;2023-12-20T10:22:16;40.33;;;25.60;;
8297;SDS011;4187;42.778;23.242;2023-12-20T10:24:42;47.33;;;27.57;;
8297;SDS011;4187;42.778;23.242;2023-12-20T10:27:09;42.47;;;27.90;;
8297;SDS011;4187;42.778;23.242;2023-12-20T10:29:35;46.97;;;27.60;;
8297;SDS011;4187;42.778;23.242;2023-12-20T10:34:43;57.70;;;33.03;;
8297;SDS011;4187;42.778;23.242;2023-12-20T10:37:10;57.93;;;35.87;;
8297;SDS011;4187;42.778;23.242;2023-12-20T10:39:38;55.33;;;34.60;;
8297;SDS011;4187;42.778;23.242;2023-12-20T10:42:05;61.00;;;36.33;;
8297;SDS011;4187;42.778;23.242;2023-12-20T10:44:31;66.23;;;38.13;;
8297;SDS011;4187;42.778;23.242;2023-12-20T10:46:58;69.17;;;40.40;;
8297;SDS011;4187;42.778;23.242;2023-12-20T10:49:25;66.80;;;39.00;;
8297;SDS011;4187;42.778;23.242;2023-12-20T10:51:52;63.83;;;37.17;;
8297;SDS011;4187;42.778;23.242;2023-12-20T10:54:22;72.30;;;41.60;;
8297;SDS011;4187;42.778;23.242;2023-12-20T10:56:50;73.23;;;42.50;;
8297;SDS011;4187;42.778;23.242;2023-12-20T10:59:18;72.83;;;44.87;;
8297;SDS011;4187;42.778;23.242;2023-12-20T11:01:47;80.07;;;44.53;;
8297;SDS011;4187;42.778;23.242;2023-12-20T11:04:15;89.00;;;45.57;;
8297;SDS011;4187;42.778;23.242;2023-12-20T11:06:46;85.47;;;46.87;;
8297;SDS011;4187;42.778;23.242;2023-12-20T11:09:24;87.33;;;47.63;;
8297;SDS011;4187;42.778;23.242;2023-12-20T11:11:56;75.73;;;42.63;;
8297;SDS011;4187;42.778;23.242;2023-12-20T11:14:27;80.80;;;44.10;;
8297;SDS011;4187;42.778;23.242;2023-12-20T11:17:05;67.47;;;39.83;;
8297;SDS011;4187;42.778;23.242;2023-12-20T11:19:31;72.07;;;39.77;;
8297;SDS011;4187;42.778;23.242;2023-12-20T11:21:58;68.73;;;41.50;;
8297;SDS011;4187;42.778;23.242;2023-12-20T11:24:24;68.43;;;39.10;;
8297;SDS011;4187;42.778;23.242;2023-12-20T11:26:51;64.63;;;38.43;;
8297;SDS011;4187;42.778;23.242;2023-12-20T11:29:34;57.77;;;36.50;;
8297;SDS011;4187;42.778;23.242;2023-12-20T11:32:02;51.60;;;32.93;;
8297;SDS011;4187;42.778;23.242;2023-12-20T11:34:29;52.40;;;34.43;;
8297;SDS011;4187;42.778;23.242;2023-12-20T11:36:57;59.40;;;35.03;;
8297;SDS011;4187;42.778;23.242;2023-12-20T11:39:25;56.43;;;35.27;;
8297;SDS011;4187;42.778;23.242;2023-12-20T11:41:51;55.67;;;33.53;;
8297;SDS011;4187;42.778;23.242;2023-12-20T11:44:18;70.87;;;37.33;;
8297;SDS011;4187;42.778;23.242;2023-12-20T11:46:47;58.60;;;35.77;;
8297;SDS011;4187;42.778;23.242;2023-12-20T11:49:13;58.70;;;34.30;;
8297;SDS011;4187;42.778;23.242;2023-12-20T11:51:40;57.93;;;36.43;;
8297;SDS011;4187;42.778;23.242;2023-12-20T11:54:07;61.33;;;35.73;;
8297;SDS011;4187;42.778;23.242;2023-12-20T11:56:34;64.70;;;39.70;;
8297;SDS011;4187;42.778;23.242;2023-12-20T11:59:01;71.50;;;40.10;;
8297;SDS011;4187;42.778;23.242;2023-12-20T12:01:28;76.43;;;40.53;;
8297;SDS011;4187;42.778;23.242;2023-12-20T12:04:03;69.70;;;40.07;;
8297;SDS011;4187;42.778;23.242;2023-12-20T12:06:29;72.20;;;39.97;;
8297;SDS011;4187;42.778;23.242;2023-12-20T12:08:56;66.77;;;43.03;;
8297;SDS011;4187;42.778;23.242;2023-12-20T12:11:22;72.70;;;49.13;;
8297;SDS011;4187;42.778;23.242;2023-12-20T12:13:50;74.17;;;38.97;;
8297;SDS011;4187;42.778;23.242;2023-12-20T12:16:16;67.40;;;39.00;;
8297;SDS011;4187;42.778;23.242;2023-12-20T12:18:43;74.53;;;40.70;;
8297;SDS011;4187;42.778;23.242;2023-12-20T12:21:11;74.70;;;44.93;;
8297;SDS011;4187;42.778;23.242;2023-12-20T12:23:44;74.30;;;42.90;;
8297;SDS011;4187;42.778;23.242;2023-12-20T12:26:11;64.97;;;40.20;;
8297;SDS011;4187;42.778;23.242;2023-12-20T12:28:39;65.20;;;40.13;;
8297;SDS011;4187;42.778;23.242;2023-12-20T12:31:06;65.13;;;40.00;;
8297;SDS011;4187;42.778;23.242;2023-12-20T12:33:32;69.97;;;42.37;;
8297;SDS011;4187;42.778;23.242;2023-12-20T12:35:59;71.97;;;42.40;;
8297;SDS011;4187;42.778;23.242;2023-12-20T12:38:27;80.37;;;46.00;;
8297;SDS011;4187;42.778;23.242;2023-12-20T12:40:54;95.70;;;52.20;;
8297;SDS011;4187;42.778;23.242;2023-12-20T12:43:21;97.70;;;55.30;;
8297;SDS011;4187;42.778;23.242;2023-12-20T12:45:48;105.93;;;56.40;;
8297;SDS011;4187;42.778;23.242;2023-12-20T12:48:14;116.00;;;59.50;;
8297;SDS011;4187;42.778;23.242;2023-12-20T12:50:41;132.63;;;63.37;;
8297;SDS011;4187;42.778;23.242;2023-12-20T12:53:08;112.63;;;61.87;;
8297;SDS011;4187;42.778;23.242;2023-12-20T12:55:36;144.53;;;64.57;;
8297;SDS011;4187;42.778;23.242;2023-12-20T12:58:03;122.40;;;60.97;;
8297;SDS011;4187;42.778;23.242;2023-12-20T13:00:29;106.43;;;59.23;;
8297;SDS011;4187;42.778;23.242;2023-12-20T13:02:56;104.43;;;56.57;;
8297;SDS011;4187;42.778;23.242;2023-12-20T13:05:22;104.53;;;57.10;;
8297;SDS011;4187;42.778;23.242;2023-12-20T13:07:49;91.13;;;52.00;;
8297;SDS011;4187;42.778;23.242;2023-12-20T13:10:15;101.33;;;53.40;;
8297;SDS011;4187;42.778;23.242;2023-12-20T13:12:43;89.43;;;51.23;;
8297;SDS011;4187;42.778;23.242;2023-12-20T13:15:10;101.97;;;52.43;;
8297;SDS011;4187;42.778;23.242;2023-12-20T13:17:37;95.47;;;54.37;;
8297;SDS011;4187;42.778;23.242;2023-12-20T13:20:05;109.97;;;58.23;;
8297;SDS011;4187;42.778;23.242;2023-12-20T13:22:32;119.13;;;59.90;;
8297;SDS011;4187;42.778;23.242;2023-12-20T13:24:58;120.07;;;63.30;;
8297;SDS011;4187;42.778;23.242;2023-12-20T13:27:25;123.60;;;62.40;;
8297;SDS011;4187;42.778;23.242;2023-12-20T13:29:53;112.47;;;61.00;;
8297;SDS011;4187;42.778;23.242;2023-12-20T13:32:19;119.27;;;67.33;;
8297;SDS011;4187;42.778;23.242;2023-12-20T13:34:46;126.90;;;65.97;;
8297;SDS011;4187;42.778;23.242;2023-12-20T13:37:13;119.53;;;64.57;;
8297;SDS011;4187;42.778;23.242;2023-12-20T13:39:39;132.00;;;68.43;;
8297;SDS011;4187;42.778;23.242;2023-12-20T13:42:06;136.73;;;66.33;;
8297;SDS011;4187;42.778;23.242;2023-12-20T13:44:32;264.67;;;65.13;;
8297;SDS011;4187;42.778;23.242;2023-12-20T13:47:00;184.40;;;63.17;;
8297;SDS011;4187;42.778;23.242;2023-12-20T13:49:28;127.73;;;62.53;;
8297;SDS011;4187;42.778;23.242;2023-12-20T13:51:55;230.40;;;63.73;;
8297;SDS011;4187;42.778;23.242;2023-12-20T13:54:22;125.97;;;62.67;;
8297;SDS011;4187;42.778;23.242;2023-12-20T13:56:49;124.47;;;64.53;;
8297;SDS011;4187;42.778;23.242;2023-12-20T13:59:15;143.43;;;63.00;;
8297;SDS011;4187;42.778;23.242;2023-12-20T14:01:42;129.03;;;63.60;;
8297;SDS011;4187;42.778;23.242;2023-12-20T14:04:10;103.90;;;60.30;;
8297;SDS011;4187;42.778;23.242;2023-12-20T14:06:36;185.93;;;65.27;;
8297;SDS011;4187;42.778;23.242;2023-12-20T14:09:03;171.73;;;66.77;;
8297;SDS011;4187;42.778;23.242;2023-12-20T14:11:29;226.77;;;68.40;;
8297;SDS011;4187;42.778;23.242;2023-12-20T14:13:56;148.43;;;61.97;;
8297;SDS011;4187;42.778;23.242;2023-12-20T14:16:23;138.53;;;61.13;;
8297;SDS011;4187;42.778;23.242;2023-12-20T14:18:49;182.23;;;65.03;;
8297;SDS011;4187;42.778;23.242;2023-12-20T14:21:19;159.50;;;64.30;;
8297;SDS011;4187;42.778;23.242;2023-12-20T14:23:46;196.90;;;65.77;;
8297;SDS011;4187;42.778;23.242;2023-12-20T14:26:12;141.53;;;67.47;;
8297;SDS011;4187;42.778;23.242;2023-12-20T14:28:40;160.17;;;67.57;;
8297;SDS011;4187;42.778;23.242;2023-12-20T14:31:06;229.93;;;70.07;;